Time;durP1;ratioP1;P1;durP2;ratioP2;P2;SDS_P1;SDS_P2;PMS_P1;PMS_P2;Temp;Humidity;BMP_temperature;BMP_pressure;BME280_temperature;BME280_humidity;BME280_pressure;Samples;Min_cycle;Max_cycle;Signal;HPM_P1;HPM_P2
2023/02/06 00:01:44;;;;;;;27.77;15.50;;;;;;;-1.44;100.00;100709.53;4202110;28;20060;-74
2023/02/06 00:03:44;;;;;;;32.75;16.58;;;;;;;-1.48;100.00;100706.50;4192139;28;20055;-74
2023/02/06 00:05:53;;;;;;;28.77;15.48;;;;;;;-1.49;100.00;100691.28;4192837;28;20036;-74
2023/02/06 00:07:53;;;;;;;31.08;16.27;;;;;;;-1.47;100.00;100696.47;4193098;28;20673;-74
2023/02/06 00:09:54;;;;;;;33.03;16.45;;;;;;;-1.49;100.00;100696.72;4192661;28;20097;-74
2023/02/06 00:11:54;;;;;;;32.33;16.00;;;;;;;-1.51;100.00;100692.56;4192735;28;20125;-74
2023/02/06 00:13:54;;;;;;;29.42;15.25;;;;;;;-1.54;100.00;100695.78;4192472;28;20056;-74
2023/02/06 00:15:55;;;;;;;32.40;16.17;;;;;;;-1.54;100.00;100687.66;4195771;28;20440;-74
2023/02/06 00:17:55;;;;;;;31.13;15.90;;;;;;;-1.56;100.00;100681.63;4192584;28;20387;-74
2023/02/06 00:19:55;;;;;;;32.85;16.25;;;;;;;-1.56;100.00;100671.59;4193074;28;20655;-74
2023/02/06 00:21:55;;;;;;;32.42;15.73;;;;;;;-1.56;100.00;100679.75;4192300;28;20464;-74
2023/02/06 00:23:58;;;;;;;29.92;15.93;;;;;;;-1.56;100.00;100678.94;4191661;28;20035;-74
2023/02/06 00:25:59;;;;;;;30.45;15.30;;;;;;;-1.55;100.00;100681.38;4191639;28;20127;-74
2023/02/06 00:27:59;;;;;;;30.52;15.95;;;;;;;-1.54;100.00;100682.22;4192727;28;20423;-74
2023/02/06 00:29:59;;;;;;;33.83;17.35;;;;;;;-1.57;100.00;100678.09;4192064;28;20056;-74
2023/02/06 00:32:00;;;;;;;34.72;16.80;;;;;;;-1.59;100.00;100679.41;4196227;28;20059;-74
2023/02/06 00:34:02;;;;;;;32.95;15.30;;;;;;;-1.58;100.00;100687.28;4190831;28;20127;-74
2023/02/06 00:36:03;;;;;;;30.60;15.63;;;;;;;-1.57;100.00;100679.97;4192039;28;20045;-74
2023/02/06 00:38:05;;;;;;;31.00;15.15;;;;;;;-1.55;100.00;100675.13;4192806;28;20150;-75
2023/02/06 00:40:06;;;;;;;32.47;16.60;;;;;;;-1.55;100.00;100680.56;4192312;28;20512;-74
2023/02/06 00:42:07;;;;;;;31.08;14.68;;;;;;;-1.55;100.00;100686.00;4192523;28;20066;-74
2023/02/06 00:44:07;;;;;;;26.38;14.32;;;;;;;-1.60;100.00;100692.16;4194488;28;20457;-74
2023/02/06 00:46:08;;;;;;;30.33;14.45;;;;;;;-1.63;100.00;100692.66;4192119;28;20039;-74
2023/02/06 00:48:09;;;;;;;28.58;13.48;;;;;;;-1.64;100.00;100698.31;4191903;28;20036;-74
2023/02/06 00:50:09;;;;;;;26.73;14.77;;;;;;;-1.66;100.00;100695.81;4192661;28;20110;-74
2023/02/06 00:52:09;;;;;;;31.30;15.07;;;;;;;-1.62;100.00;100704.31;4191970;28;20082;-74
2023/02/06 00:54:10;;;;;;;29.23;13.95;;;;;;;-1.58;100.00;100705.47;4191447;28;20111;-74
2023/02/06 00:56:10;;;;;;;31.40;15.55;;;;;;;-1.59;100.00;100696.50;4192444;28;20021;-74
2023/02/06 00:58:10;;;;;;;30.60;16.27;;;;;;;-1.61;100.00;100697.81;4191691;28;20032;-74
2023/02/06 01:00:11;;;;;;;33.33;16.13;;;;;;;-1.65;100.00;100699.41;4196340;28;20067;-74
2023/02/06 01:02:12;;;;;;;35.72;16.63;;;;;;;-1.63;100.00;100702.69;4192211;28;20532;-74
2023/02/06 01:04:12;;;;;;;33.20;15.43;;;;;;;-1.62;100.00;100694.28;4191590;28;20121;-74
2023/02/06 01:06:12;;;;;;;31.50;15.30;;;;;;;-1.63;100.00;100697.25;4191775;28;20028;-74
2023/02/06 01:08:13;;;;;;;32.55;15.98;;;;;;;-1.61;100.00;100689.69;4197020;28;20016;-74
2023/02/06 01:10:13;;;;;;;32.95;15.80;;;;;;;-1.64;100.00;100699.16;4191781;28;20024;-74
2023/02/06 01:12:14;;;;;;;31.77;15.45;;;;;;;-1.65;100.00;100699.41;4191672;28;20556;-74
2023/02/06 01:14:14;;;;;;;31.98;15.88;;;;;;;-1.62;100.00;100705.16;4193127;28;20293;-74
2023/02/06 01:16:18;;;;;;;31.38;14.50;;;;;;;-1.64;100.00;100704.56;4192551;28;20456;-74
2023/02/06 01:18:19;;;;;;;30.27;15.40;;;;;;;-1.66;100.00;100700.44;4191463;28;20031;-74
2023/02/06 01:20:20;;;;;;;29.65;14.23;;;;;;;-1.64;100.00;100706.47;4193168;28;20515;-74
2023/02/06 01:22:20;;;;;;;32.60;16.33;;;;;;;-1.56;100.00;100706.06;4192118;28;20029;-74
2023/02/06 01:24:21;;;;;;;33.42;15.38;;;;;;;-1.56;100.00;100703.34;4194168;28;20066;-74
2023/02/06 01:26:25;;;;;;;31.42;16.10;;;;;;;-1.57;100.00;100707.13;4192765;28;20086;-74
2023/02/06 01:28:26;;;;;;;30.60;15.63;;;;;;;-1.57;100.00;100696.25;4196350;28;20045;-74
2023/02/06 01:30:27;;;;;;;30.25;16.48;;;;;;;-1.60;100.00;100692.16;4191253;28;20556;-74
2023/02/06 01:32:27;;;;;;;31.70;15.43;;;;;;;-1.59;100.00;100693.78;4196188;28;20097;-74
2023/02/06 01:34:28;;;;;;;30.73;14.57;;;;;;;-1.62;100.00;100688.03;4190956;28;20115;-74
2023/02/06 01:36:28;;;;;;;31.23;15.20;;;;;;;-1.63;100.00;100694.53;4190574;28;20106;-74
2023/02/06 01:38:29;;;;;;;29.42;14.20;;;;;;;-1.65;100.00;100699.41;4191182;28;20481;-74
2023/02/06 01:40:29;;;;;;;32.33;15.23;;;;;;;-1.68;100.00;100697.16;4191451;28;20495;-74
2023/02/06 01:42:33;;;;;;;29.05;15.73;;;;;;;-1.70;100.00;100697.41;4190486;28;20125;-74
2023/02/06 01:44:34;;;;;;;31.15;14.93;;;;;;;-1.75;100.00;100692.69;4193325;28;20044;-74
2023/02/06 01:46:35;;;;;;;31.50;16.42;;;;;;;-1.75;100.00;100698.13;4197532;28;20088;-74
2023/02/06 01:48:47;;;;;;;31.13;15.10;;;;;;;-1.71;100.00;100701.19;4191400;28;20161;-74
2023/02/06 01:50:52;;;;;;;29.45;14.50;;;;;;;-1.72;100.00;100719.34;4191954;28;20045;-74
2023/02/06 01:52:53;;;;;;;29.85;15.07;;;;;;;-1.71;100.00;100715.56;4191248;28;20077;-74
2023/02/06 01:54:57;;;;;;;27.60;14.90;;;;;;;-1.69;100.00;100718.03;4190737;28;20165;-74
2023/02/06 01:57:04;;;;;;;26.92;14.32;;;;;;;-1.65;100.00;100710.25;4190832;28;20561;-74
2023/02/06 01:59:04;;;;;;;28.02;14.52;;;;;;;-1.65;100.00;100700.22;4191234;28;20781;-74
2023/02/06 02:01:06;;;;;;;30.88;17.15;;;;;;;-1.66;100.00;100703.16;4190937;28;20561;-74
2023/02/06 02:03:07;;;;;;;32.55;15.27;;;;;;;-1.65;100.00;100699.41;4190565;28;20053;-74
2023/02/06 02:05:08;;;;;;;30.42;16.50;;;;;;;-1.68;100.00;100689.00;4190894;28;20043;-74
2023/02/06 02:07:18;;;;;;;27.75;14.63;;;;;;;-1.67;100.00;100698.78;4193682;28;20028;-74
2023/02/06 02:09:18;;;;;;;31.58;15.10;;;;;;;-1.68;100.00;100692.53;4194507;28;20551;-74
2023/02/06 02:11:29;;;;;;;27.30;14.77;;;;;;;-1.68;100.00;100692.53;4190496;28;20075;-74
2023/02/06 02:13:31;;;;;;;29.92;15.15;;;;;;;-1.70;100.00;100694.69;4190552;28;20033;-74
2023/02/06 02:15:38;;;;;;;25.58;13.90;;;;;;;-1.68;100.00;100699.88;4191018;28;20044;-74
2023/02/06 02:17:57;;;;;;;28.42;13.95;;;;;;;-1.67;100.00;100710.47;4190583;28;20037;-74
2023/02/06 02:20:09;;;;;;;26.58;14.88;;;;;;;-1.66;100.00;100697.72;4191003;28;20087;-74
2023/02/06 02:22:40;;;;;;;27.75;14.68;;;;;;;-1.63;100.00;100697.25;4190624;28;20131;-74
2023/02/06 02:25:02;;;;;;;29.35;13.30;;;;;;;-1.62;100.00;100696.19;4191101;28;20048;-74
2023/02/06 02:27:38;;;;;;;30.60;14.30;;;;;;;-1.62;100.00;100686.16;4192291;28;20044;-74
2023/02/06 02:30:06;;;;;;;26.60;14.23;;;;;;;-1.62;100.00;100694.28;4165717;28;20125;-74
2023/02/06 02:32:24;;;;;;;25.20;12.38;;;;;;;-1.63;100.00;100684.50;4190010;28;20076;-74
2023/02/06 02:35:04;;;;;;;25.02;13.23;;;;;;;-1.60;100.00;100688.59;4190462;28;20056;-74
2023/02/06 02:37:42;;;;;;;29.20;14.57;;;;;;;-1.59;100.00;100682.13;4167470;28;20048;-74
2023/02/06 02:39:50;;;;;;;26.23;11.90;;;;;;;-1.58;100.00;100676.44;4191056;28;20048;-74
2023/02/06 02:42:09;;;;;;;27.48;14.13;;;;;;;-1.57;100.00;100685.41;4190544;28;20048;-74
2023/02/06 02:44:20;;;;;;;25.38;13.40;;;;;;;-1.53;100.00;100683.84;4189198;28;20051;-74
2023/02/06 02:46:23;;;;;;;26.25;13.32;;;;;;;-1.49;100.00;100680.41;4191014;28;20025;-74
2023/02/06 02:48:36;;;;;;;24.23;13.27;;;;;;;-1.45;100.00;100676.13;4194700;28;20453;-74
2023/02/06 02:50:38;;;;;;;23.38;12.48;;;;;;;-1.46;100.00;100670.94;4194167;28;20116;-74
2023/02/06 02:52:39;;;;;;;27.42;13.90;;;;;;;-1.44;100.00;100674.25;4193533;28;20078;-74
2023/02/06 02:54:39;;;;;;;25.70;13.02;;;;;;;-1.48;100.00;100665.78;4193793;28;20364;-74
2023/02/06 02:56:39;;;;;;;27.48;14.05;;;;;;;-1.47;100.00;100655.72;4194330;28;20055;-74
2023/02/06 02:58:40;;;;;;;23.98;13.40;;;;;;;-1.43;100.00;100663.13;4194908;28;20454;-74
2023/02/06 03:00:49;;;;;;;27.65;14.13;;;;;;;-1.46;100.00;100651.94;4200287;28;20056;-74
2023/02/06 03:02:54;;;;;;;25.15;13.23;;;;;;;-1.45;100.00;100659.84;4193054;28;20048;-74
2023/02/06 03:05:01;;;;;;;20.67;11.73;;;;;;;-1.45;100.00;100665.28;4193725;28;20098;-74
2023/02/06 03:07:19;;;;;;;25.35;13.20;;;;;;;-1.45;100.00;100659.03;4192484;28;20051;-74
2023/02/06 03:09:45;;;;;;;21.40;11.75;;;;;;;-1.45;100.00;100650.88;4193652;28;20114;-74
2023/02/06 03:11:54;;;;;;;23.90;11.85;;;;;;;-1.47;100.00;100650.31;4193635;28;20399;-74
2023/02/06 03:13:56;;;;;;;24.00;11.80;;;;;;;-1.45;100.00;100659.03;4194200;28;20404;-74
2023/02/06 03:16:07;;;;;;;23.02;11.73;;;;;;;-1.43;100.00;100654.16;4193621;28;20495;-74
2023/02/06 03:18:17;;;;;;;20.63;11.98;;;;;;;-1.44;100.00;100657.94;4193851;28;20044;-74
2023/02/06 03:20:18;;;;;;;20.83;11.23;;;;;;;-1.43;100.00;100649.56;4193755;28;20033;-74
2023/02/06 03:22:18;;;;;;;23.75;11.48;;;;;;;-1.38;100.00;100648.81;4193014;28;20094;-74
2023/02/06 03:24:23;;;;;;;21.42;11.50;;;;;;;-1.35;100.00;100647.50;4194737;28;20570;-74
2023/02/06 03:26:27;;;;;;;22.75;10.60;;;;;;;-1.31;100.00;100643.22;4195957;28;20150;-74
2023/02/06 03:28:33;;;;;;;23.05;11.32;;;;;;;-1.33;100.00;100635.31;4193154;28;20056;-74
2023/02/06 03:30:34;;;;;;;21.50;10.85;;;;;;;-1.32;100.00;100633.44;4193521;28;20384;-74
2023/02/06 03:32:40;;;;;;;19.50;10.48;;;;;;;-1.33;100.00;100638.03;4193317;28;20048;-74
2023/02/06 03:34:58;;;;;;;20.50;9.85;;;;;;;-1.31;100.00;100633.19;4196025;28;20158;-74
2023/02/06 03:36:59;;;;;;;18.60;10.05;;;;;;;-1.32;100.00;100647.03;4193373;28;20045;-74
2023/02/06 03:39:00;;;;;;;22.38;9.65;;;;;;;-1.34;100.00;100639.09;4193421;28;20361;-74
2023/02/06 03:41:01;;;;;;;18.92;10.30;;;;;;;-1.29;100.00;100641.09;4193363;28;20110;-74
2023/02/06 03:43:03;;;;;;;24.40;10.48;;;;;;;-1.28;100.00;100643.56;4192580;28;20135;-74
2023/02/06 03:45:06;;;;;;;24.67;11.20;;;;;;;-1.26;100.00;100649.56;4198302;28;20389;-74
2023/02/06 03:47:09;;;;;;;21.50;10.05;;;;;;;-1.27;100.00;100656.06;4193275;28;20045;-74
2023/02/06 03:49:13;;;;;;;18.92;9.32;;;;;;;-1.27;100.00;100660.66;4193334;28;20085;-74
2023/02/06 03:51:17;;;;;;;19.33;9.93;;;;;;;-1.28;100.00;100665.28;4192369;28;20129;-74
2023/02/06 03:53:21;;;;;;;20.73;10.90;;;;;;;-1.28;100.00;100665.28;4191640;28;20044;-74
2023/02/06 03:55:23;;;;;;;18.13;9.90;;;;;;;-1.26;100.00;100656.88;4191487;28;20044;-74
2023/02/06 03:57:26;;;;;;;18.95;10.48;;;;;;;-1.23;100.00;100667.28;4191711;28;20123;-74
2023/02/06 03:59:28;;;;;;;26.17;10.40;;;;;;;-1.23;100.00;100661.84;4195419;28;20506;-74
2023/02/06 04:01:29;;;;;;;21.10;9.40;;;;;;;-1.22;100.00;100666.19;4195634;28;20041;-74
2023/02/06 04:03:29;;;;;;;21.40;10.13;;;;;;;-1.24;100.00;100658.28;4192159;28;20072;-74
2023/02/06 04:05:30;;;;;;;18.27;9.52;;;;;;;-1.23;100.00;100669.97;4192831;28;20040;-74
2023/02/06 04:07:33;;;;;;;23.63;11.48;;;;;;;-1.19;100.00;100658.34;4196629;28;20647;-74
2023/02/06 04:09:33;;;;;;;22.77;10.75;;;;;;;-1.18;100.00;100651.84;4193133;28;20036;-74
2023/02/06 04:11:34;;;;;;;20.75;10.57;;;;;;;-1.18;100.00;100657.28;4192767;28;20161;-74
2023/02/06 04:13:34;;;;;;;19.48;10.35;;;;;;;-1.21;100.00;100657.78;4192284;28;20149;-74
2023/02/06 04:15:34;;;;;;;23.88;10.90;;;;;;;-1.16;100.00;100659.75;4193371;28;20052;-74
2023/02/06 04:17:35;;;;;;;26.63;12.43;;;;;;;-1.19;100.00;100668.41;4192438;28;20106;-74
2023/02/06 04:19:36;;;;;;;18.80;9.60;;;;;;;-1.20;100.00;100673.00;4192798;28;20040;-74
2023/02/06 04:21:37;;;;;;;18.45;9.85;;;;;;;-1.22;100.00;100671.63;4192670;28;20052;-74
2023/02/06 04:23:37;;;;;;;18.25;9.75;;;;;;;-1.20;100.00;100667.59;4191791;28;20032;-74
2023/02/06 04:25:37;;;;;;;21.08;10.20;;;;;;;-1.17;100.00;100664.38;4192442;28;20083;-74
2023/02/06 04:27:38;;;;;;;19.85;9.63;;;;;;;-1.21;100.00;100657.78;4192630;28;20040;-74
2023/02/06 04:29:38;;;;;;;20.70;9.07;;;;;;;-1.22;100.00;100649.91;4193027;28;20051;-74
2023/02/06 04:31:39;;;;;;;20.65;9.38;;;;;;;-1.25;100.00;100651.19;4193915;28;20120;-74
2023/02/06 04:33:40;;;;;;;18.65;9.35;;;;;;;-1.23;100.00;100650.97;4190693;28;20051;-74
2023/02/06 04:35:40;;;;;;;18.15;10.25;;;;;;;-1.25;100.00;100647.66;4190884;28;20455;-74
2023/02/06 04:37:41;;;;;;;16.42;8.23;;;;;;;-1.26;100.00;100649.56;4191149;28;20508;-74
2023/02/06 04:39:41;;;;;;;23.17;9.52;;;;;;;-1.26;100.00;100648.72;4190861;28;20048;-74
2023/02/06 04:41:41;;;;;;;16.88;9.05;;;;;;;-1.26;100.00;100651.44;4192399;28;20056;-74
2023/02/06 04:43:41;;;;;;;17.65;8.57;;;;;;;-1.26;100.00;100657.69;4197882;28;20155;-74
2023/02/06 04:45:42;;;;;;;12.38;7.53;;;;;;;-1.26;100.00;100656.88;4192100;28;20110;-74
2023/02/06 04:47:42;;;;;;;18.05;9.25;;;;;;;-1.24;100.00;100654.72;4193165;28;20075;-74
2023/02/06 04:49:42;;;;;;;20.80;9.52;;;;;;;-1.24;100.00;100660.16;4196707;28;20133;-74
2023/02/06 04:51:43;;;;;;;16.33;8.88;;;;;;;-1.23;100.00;100651.78;4193456;28;20530;-74
2023/02/06 04:53:43;;;;;;;19.90;9.18;;;;;;;-1.20;100.00;100647.75;4190809;28;20463;-74
2023/02/06 04:55:44;;;;;;;21.92;10.63;;;;;;;-1.22;100.00;100644.47;4192677;28;20408;-74
2023/02/06 04:57:44;;;;;;;23.27;10.38;;;;;;;-1.19;100.00;100644.78;4196995;28;20437;-74
2023/02/06 04:59:44;;;;;;;23.70;10.20;;;;;;;-1.14;100.00;100650.31;4193593;28;20080;-74
2023/02/06 05:01:44;;;;;;;16.75;9.40;;;;;;;-1.16;100.00;100641.59;4195637;28;20380;-74
2023/02/06 05:03:46;;;;;;;23.08;10.55;;;;;;;-1.13;100.00;100649.22;4191599;28;20082;-74
2023/02/06 05:05:46;;;;;;;17.95;9.75;;;;;;;-1.06;100.00;100648.25;4190406;28;20543;-74
2023/02/06 05:07:46;;;;;;;20.33;10.82;;;;;;;-1.04;100.00;100644.19;4195971;28;20425;-74
2023/02/06 05:09:47;;;;;;;21.70;10.80;;;;;;;-1.03;100.00;100647.72;4192845;28;20568;-74
2023/02/06 05:11:47;;;;;;;25.08;11.70;;;;;;;-1.06;100.00;100643.63;4192049;28;20044;-74
2023/02/06 05:13:47;;;;;;;27.17;12.18;;;;;;;-1.06;100.00;100650.97;4195914;28;20058;-74
2023/02/06 05:15:48;;;;;;;23.33;11.50;;;;;;;-1.06;100.00;100657.22;4194267;28;20040;-74
2023/02/06 05:17:48;;;;;;;30.25;14.15;;;;;;;-1.09;100.00;100654.16;4194019;28;20040;-74
2023/02/06 05:19:48;;;;;;;27.52;13.90;;;;;;;-1.10;100.00;100644.34;4191724;28;20396;-74
2023/02/06 05:21:49;;;;;;;29.58;14.82;;;;;;;-1.10;100.00;100645.19;4191026;28;20375;-74
2023/02/06 05:23:49;;;;;;;37.13;18.58;;;;;;;-1.08;100.00;100653.06;4191026;28;20527;-74
2023/02/06 05:25:49;;;;;;;35.97;19.48;;;;;;;-1.10;100.00;100644.34;4196556;28;20465;-74
2023/02/06 05:27:50;;;;;;;36.72;19.80;;;;;;;-1.11;100.00;100651.69;4189419;28;20944;-74
2023/02/06 05:29:51;;;;;;;40.88;20.15;;;;;;;-1.10;100.00;100644.34;4184659;28;20487;-74
2023/02/06 05:31:51;;;;;;;37.05;19.88;;;;;;;-1.09;100.00;100635.13;4184300;28;20102;-74
2023/02/06 05:33:52;;;;;;;35.53;17.67;;;;;;;-1.09;100.00;100646.00;4181641;28;21910;-74
2023/02/06 05:35:52;;;;;;;30.70;16.85;;;;;;;-1.08;100.00;100639.50;4184816;28;20043;-74
2023/02/06 05:37:53;;;;;;;35.10;18.70;;;;;;;-1.09;100.00;100629.69;4185790;28;20163;-74
2023/02/06 05:39:53;;;;;;;31.98;17.08;;;;;;;-1.05;100.00;100637.13;4189364;28;20076;-74
2023/02/06 05:41:53;;;;;;;28.35;15.73;;;;;;;-1.09;100.00;100627.81;4187011;28;20052;-74
2023/02/06 05:43:54;;;;;;;29.73;16.02;;;;;;;-1.07;100.00;100622.97;4186926;28;20139;-74
2023/02/06 05:45:54;;;;;;;38.40;16.85;;;;;;;-1.05;100.00;100623.53;4190960;28;20063;-74
2023/02/06 05:47:54;;;;;;;35.08;17.15;;;;;;;-1.06;100.00;100626.50;4191626;28;20713;-74
2023/02/06 05:49:54;;;;;;;31.80;15.15;;;;;;;-1.00;100.00;100630.91;4187498;28;20130;-74
2023/02/06 05:51:55;;;;;;;30.15;14.30;;;;;;;-1.02;100.00;100633.91;4190217;28;20121;-74
2023/02/06 05:53:55;;;;;;;33.20;15.40;;;;;;;-1.01;100.00;100640.97;4191034;28;20355;-74
2023/02/06 05:55:56;;;;;;;35.35;14.95;;;;;;;-0.96;100.00;100642.94;4186748;28;20484;-74
2023/02/06 05:57:57;;;;;;;37.92;14.85;;;;;;;-0.90;100.00;100636.53;4143610;28;20060;-74
2023/02/06 05:59:57;;;;;;;28.52;14.88;;;;;;;-0.88;100.00;100640.63;4149176;28;20072;-74
2023/02/06 06:01:57;;;;;;;32.60;14.82;;;;;;;-0.83;100.00;100656.16;4193628;28;20090;-74
2023/02/06 06:03:58;;;;;;;27.63;13.93;;;;;;;-0.77;100.00;100663.34;4188585;28;20105;-74
2023/02/06 06:05:59;;;;;;;30.73;14.25;;;;;;;-0.72;100.00;100662.59;4191346;28;20383;-74
2023/02/06 06:07:59;;;;;;;26.70;12.80;;;;;;;-0.72;100.00;100668.84;4190090;28;20053;-74
2023/02/06 06:10:00;;;;;;;31.90;14.05;;;;;;;-0.77;100.00;100666.06;4189651;28;20090;-74
2023/02/06 06:12:00;;;;;;;35.53;14.80;;;;;;;-0.80;100.00;100665.75;4190756;28;20090;-74
2023/02/06 06:14:00;;;;;;;32.40;15.25;;;;;;;-0.72;100.00;100670.75;4192097;28;20496;-74
2023/02/06 06:16:01;;;;;;;36.13;16.05;;;;;;;-0.81;100.00;100669.53;4191545;28;20056;-74
2023/02/06 06:18:02;;;;;;;34.75;15.98;;;;;;;-0.85;100.00;100669.19;4190990;28;20119;-74
2023/02/06 06:20:03;;;;;;;33.10;14.45;;;;;;;-0.88;100.00;100675.97;4190055;28;20032;-74
2023/02/06 06:22:03;;;;;;;35.95;15.80;;;;;;;-0.89;100.00;100663.44;4190558;28;20024;-74
2023/02/06 06:24:04;;;;;;;31.80;14.60;;;;;;;-0.79;100.00;100656.50;4190327;28;20241;-74
2023/02/06 06:26:04;;;;;;;30.52;13.63;;;;;;;-0.80;100.00;100654.88;4190525;28;20028;-74
2023/02/06 06:28:04;;;;;;;32.13;14.85;;;;;;;-0.76;100.00;100658.72;4190963;28;20044;-74
2023/02/06 06:30:05;;;;;;;28.55;14.50;;;;;;;-0.71;100.00;100659.63;4189590;28;20036;-74
2023/02/06 06:32:06;;;;;;;26.05;12.75;;;;;;;-0.75;100.00;100663.91;4189198;28;20025;-74
2023/02/06 06:34:06;;;;;;;36.55;14.52;;;;;;;-0.76;100.00;100664.97;4191956;28;20034;-74
2023/02/06 06:36:08;;;;;;;30.58;13.27;;;;;;;-0.70;100.00;100680.28;4189681;28;20041;-74
2023/02/06 06:38:09;;;;;;;26.00;12.63;;;;;;;-0.73;100.00;100680.00;4192054;28;20083;-74
2023/02/06 06:40:10;;;;;;;28.35;13.38;;;;;;;-0.72;100.00;100682.44;4190040;28;20403;-74
2023/02/06 06:42:10;;;;;;;28.65;13.15;;;;;;;-0.75;100.00;100682.09;4190785;28;20645;-74
2023/02/06 06:44:10;;;;;;;27.65;13.80;;;;;;;-0.70;100.00;100682.19;4190089;28;20093;-74
2023/02/06 06:46:11;;;;;;;24.73;13.75;;;;;;;-0.75;100.00;100680.22;4190605;28;20020;-74
2023/02/06 06:48:11;;;;;;;30.23;14.70;;;;;;;-0.73;100.00;100664.50;4190325;28;20025;-74
2023/02/06 06:50:11;;;;;;;28.10;13.02;;;;;;;-0.77;100.00;100660.63;4190974;28;20475;-74
2023/02/06 06:52:12;;;;;;;28.05;13.30;;;;;;;-0.73;100.00;100660.97;4189246;28;20032;-74
2023/02/06 06:54:14;;;;;;;32.67;14.32;;;;;;;-0.75;100.00;100673.94;4196826;28;20028;-74
2023/02/06 06:56:14;;;;;;;27.75;13.35;;;;;;;-0.70;100.00;100677.56;4191011;28;20090;-74
2023/02/06 06:58:14;;;;;;;25.17;11.98;;;;;;;-0.69;100.00;100662.91;4190313;28;20032;-74
2023/02/06 07:00:15;;;;;;;29.65;13.63;;;;;;;-0.72;100.00;100666.13;4190722;28;20107;-74
2023/02/06 07:02:16;;;;;;;24.60;11.77;;;;;;;-0.67;100.00;100662.66;4190343;28;20032;-74
2023/02/06 07:04:16;;;;;;;31.08;13.63;;;;;;;-0.68;100.00;100667.28;4189656;28;20068;-74
2023/02/06 07:06:16;;;;;;;27.02;12.35;;;;;;;-0.63;100.00;100674.69;4195771;28;20376;-74
2023/02/06 07:08:17;;;;;;;29.27;12.25;;;;;;;-0.67;100.00;100670.81;4191387;28;20027;-74
2023/02/06 07:10:17;;;;;;;25.80;13.02;;;;;;;-0.70;100.00;100668.59;4190752;28;20067;-74
2023/02/06 07:12:18;;;;;;;28.52;12.73;;;;;;;-0.67;100.00;100676.25;4188746;28;20059;-74
2023/02/06 07:14:18;;;;;;;25.77;12.02;;;;;;;-0.60;100.00;100674.19;4189676;28;20098;-74
2023/02/06 07:16:18;;;;;;;26.10;12.38;;;;;;;-0.49;100.00;100672.44;4192061;28;20137;-74
2023/02/06 07:18:19;;;;;;;33.38;18.83;;;;;;;-0.53;100.00;100665.84;4189899;28;20582;-74
2023/02/06 07:20:19;;;;;;;30.27;16.40;;;;;;;-0.51;100.00;100664.50;4190531;28;20468;-74
2023/02/06 07:22:20;;;;;;;29.60;14.80;;;;;;;-0.49;100.00;100656.13;4190605;28;20033;-74
2023/02/06 07:24:20;;;;;;;21.60;12.25;;;;;;;-0.51;100.00;100671.84;4189581;28;21888;-75
2023/02/06 07:26:21;;;;;;;24.70;11.85;;;;;;;-0.52;100.00;100670.19;4190656;28;20040;-74
2023/02/06 07:28:21;;;;;;;22.33;11.13;;;;;;;-0.48;100.00;100683.06;4190136;28;20139;-75
2023/02/06 07:30:21;;;;;;;26.65;15.27;;;;;;;-0.58;100.00;100683.75;4190272;28;20041;-74
2023/02/06 07:32:22;;;;;;;25.42;12.27;;;;;;;-0.60;100.00;100682.31;4189688;28;20051;-75
2023/02/06 07:34:22;;;;;;;22.55;12.77;;;;;;;-0.61;100.00;100686.13;4192507;28;20041;-74
2023/02/06 07:36:22;;;;;;;23.30;11.85;;;;;;;-0.57;100.00;100687.28;4193796;28;20368;-75
2023/02/06 07:38:23;;;;;;;26.52;13.07;;;;;;;-0.58;100.00;100681.03;4193413;28;20074;-74
2023/02/06 07:40:23;;;;;;;28.80;15.30;;;;;;;-0.60;100.00;100672.28;4193191;28;20041;-74
2023/02/06 07:42:24;;;;;;;27.92;14.35;;;;;;;-0.59;100.00;100673.09;4193308;28;20049;-75
2023/02/06 07:44:24;;;;;;;21.73;12.57;;;;;;;-0.49;100.00;100680.59;4192933;28;20483;-75
2023/02/06 07:46:25;;;;;;;24.50;12.82;;;;;;;-0.50;100.00;100674.31;4192666;28;20032;-75
2023/02/06 07:48:25;;;;;;;24.58;12.07;;;;;;;-0.49;100.00;100675.16;4193590;28;20662;-75
2023/02/06 07:50:26;;;;;;;26.67;13.40;;;;;;;-0.48;100.00;100676.78;4193072;28;20067;-75
2023/02/06 07:52:26;;;;;;;26.02;12.50;;;;;;;-0.46;100.00;100658.31;4191715;28;20183;-75
2023/02/06 07:54:26;;;;;;;25.67;12.65;;;;;;;-0.51;100.00;100652.81;4195997;28;20048;-74
2023/02/06 07:56:27;;;;;;;25.08;13.13;;;;;;;-0.44;100.00;100665.16;4194511;28;20032;-74
2023/02/06 07:58:27;;;;;;;30.08;14.63;;;;;;;-0.43;100.00;100655.09;4193141;28;20377;-74
2023/02/06 08:00:28;;;;;;;27.83;13.88;;;;;;;-0.51;100.00;100666.41;4198242;28;20040;-74
2023/02/06 08:02:28;;;;;;;28.63;13.23;;;;;;;-0.53;100.00;100669.38;4192689;28;20051;-74
2023/02/06 08:04:33;;;;;;;26.90;12.63;;;;;;;-0.51;100.00;100680.00;4192945;28;20124;-74
2023/02/06 08:06:34;;;;;;;19.90;9.25;;;;;;;-0.46;100.00;100677.38;4192702;28;20048;-75
2023/02/06 08:08:34;;;;;;;20.33;9.93;;;;;;;-0.41;100.00;100691.03;4192574;28;20098;-74
2023/02/06 08:10:37;;;;;;;21.05;12.15;;;;;;;-0.45;100.00;100690.69;4193435;28;20066;-74
2023/02/06 08:12:37;;;;;;;37.80;17.10;;;;;;;-0.37;100.00;100692.16;4192120;28;20051;-75
2023/02/06 08:14:37;;;;;;;47.83;18.92;;;;;;;-0.35;100.00;100690.00;4192392;28;20642;-74
2023/02/06 08:16:38;;;;;;;38.35;18.55;;;;;;;-0.25;100.00;100684.69;4192838;28;20072;-74
2023/02/06 08:18:38;;;;;;;29.73;15.07;;;;;;;-0.29;100.00;100684.38;4190539;28;20029;-74
2023/02/06 08:20:39;;;;;;;39.83;16.90;;;;;;;-0.24;100.00;100682.81;4192759;28;20044;-74
2023/02/06 08:22:39;;;;;;;30.17;14.07;;;;;;;-0.25;100.00;100679.25;4191624;28;20049;-75
2023/02/06 08:24:40;;;;;;;26.90;13.55;;;;;;;-0.18;100.00;100688.06;4192921;28;20105;-74
2023/02/06 08:26:40;;;;;;;18.40;10.75;;;;;;;-0.23;100.00;100681.75;4192601;28;20044;-75
2023/02/06 08:28:42;;;;;;;19.83;10.00;;;;;;;-0.25;100.00;100667.56;4192557;28;20388;-75
2023/02/06 08:30:42;;;;;;;22.70;10.40;;;;;;;-0.18;100.00;100662.75;4192051;28;20052;-74
2023/02/06 08:32:43;;;;;;;20.50;10.07;;;;;;;-0.21;100.00;100658.63;4191829;28;20366;-74
2023/02/06 08:34:43;;;;;;;20.17;9.90;;;;;;;-0.23;100.00;100668.97;4192605;28;20051;-74
2023/02/06 08:36:43;;;;;;;15.13;7.78;;;;;;;-0.13;100.00;100671.81;4192197;28;20040;-74
2023/02/06 08:38:44;;;;;;;18.23;9.32;;;;;;;-0.20;100.00;100663.00;4192537;28;20481;-74
2023/02/06 08:40:45;;;;;;;18.88;9.70;;;;;;;-0.11;100.00;100664.19;4192183;28;20048;-74
2023/02/06 08:42:49;;;;;;;19.70;9.55;;;;;;;-0.13;100.00;100658.19;4191577;28;20037;-75
2023/02/06 08:44:51;;;;;;;16.73;8.32;;;;;;;-0.14;100.00;100644.84;4191481;28;20040;-74
2023/02/06 08:46:51;;;;;;;19.55;9.32;;;;;;;0.00;100.00;100643.38;4192322;28;20047;-74
2023/02/06 08:48:56;;;;;;;16.73;8.82;;;;;;;-0.05;100.00;100632.44;4192205;28;20496;-74
2023/02/06 08:51:03;;;;;;;18.35;9.45;;;;;;;-0.07;100.00;100629.97;4192138;28;20055;-75
2023/02/06 08:53:04;;;;;;;16.90;9.60;;;;;;;-0.03;100.00;100628.38;4191078;28;20048;-74
2023/02/06 08:55:05;;;;;;;17.42;9.75;;;;;;;0.02;100.00;100635.78;4192372;28;20056;-74
2023/02/06 08:57:05;;;;;;;16.75;8.98;;;;;;;0.10;100.00;100635.31;4192186;28;20083;-75
2023/02/06 08:59:06;;;;;;;20.10;10.27;;;;;;;0.16;100.00;100633.44;4191799;28;20036;-74
2023/02/06 09:01:09;;;;;;;20.73;9.35;;;;;;;0.18;100.00;100632.13;4192045;28;20374;-75
2023/02/06 09:03:10;;;;;;;21.42;9.40;;;;;;;0.16;100.00;100630.72;4191272;28;20048;-74
2023/02/06 09:05:10;;;;;;;19.60;9.68;;;;;;;0.11;100.00;100625.25;4191574;28;20118;-74
2023/02/06 09:07:10;;;;;;;18.27;8.90;;;;;;;0.04;100.00;100624.63;4191492;28;20428;-74
2023/02/06 09:09:12;;;;;;;16.80;8.20;;;;;;;0.09;100.00;100627.41;4191856;28;20153;-74
2023/02/06 09:11:15;;;;;;;16.50;8.80;;;;;;;0.06;100.00;100617.03;4195645;28;20512;-74